Time;durP1;ratioP1;P1;durP2;ratioP2;P2;SDS_P1;SDS_P2;PMS_P1;PMS_P2;Temp;Humidity;BMP_temperature;BMP_pressure;BME280_temperature;BME280_humidity;BME280_pressure;Samples;Min_cycle;Max_cycle;Signal;HPM_P1;HPM_P2
2022/10/05 00:01:26;;;;;;;7.93;7.73;;;8.30;99.90;;;;;;5097455;28;20244;-80
2022/10/05 00:03:59;;;;;;;8.33;8.13;;;8.30;99.90;;;;;;5098544;28;20236;-81
2022/10/05 00:06:30;;;;;;;8.20;8.00;;;8.30;99.90;;;;;;5098691;28;20234;-81
2022/10/05 00:08:58;;;;;;;8.27;8.07;;;8.20;99.90;;;;;;5099210;28;20238;-81
2022/10/05 00:11:28;;;;;;;8.20;8.00;;;8.20;99.90;;;;;;5099213;28;20238;-81
2022/10/05 00:13:56;;;;;;;8.27;8.07;;;8.20;99.90;;;;;;5100435;28;20224;-80
2022/10/05 00:16:25;;;;;;;8.27;8.07;;;8.20;99.90;;;;;;5096856;28;20234;-82
2022/10/05 00:18:56;;;;;;;8.30;8.10;;;8.20;99.90;;;;;;5090360;28;20231;-81
2022/10/05 00:21:27;;;;;;;8.30;8.10;;;8.20;99.90;;;;;;5090200;28;20244;-81
2022/10/05 00:23:58;;;;;;;8.17;7.97;;;8.20;99.90;;;;;;5085917;28;20221;-80
2022/10/05 00:26:33;;;;;;;8.20;8.00;;;8.20;99.90;;;;;;5084510;28;20280;-80
2022/10/05 00:29:02;;;;;;;8.10;7.90;;;8.20;99.90;;;;;;5085148;28;20305;-81
2022/10/05 00:31:33;;;;;;;8.10;7.90;;;8.20;99.90;;;;;;5083461;28;20238;-81
2022/10/05 00:34:02;;;;;;;8.10;7.90;;;8.20;99.90;;;;;;5083154;28;20229;-81
2022/10/05 00:36:30;;;;;;;8.50;8.30;;;8.20;99.90;;;;;;5083761;28;20329;-81
2022/10/05 00:39:00;;;;;;;8.10;7.90;;;8.10;99.90;;;;;;5083645;28;20223;-80
2022/10/05 00:41:45;;;;;;;8.27;8.07;;;8.10;99.90;;;;;;5082349;28;20234;-81
2022/10/05 00:44:37;;;;;;;8.10;7.90;;;8.10;99.90;;;;;;5081946;28;20276;-81
2022/10/05 00:47:21;;;;;;;8.23;8.03;;;8.10;99.90;;;;;;5085004;28;20249;-81
2022/10/05 00:50:08;;;;;;;7.80;7.60;;;8.10;99.90;;;;;;5086861;28;20233;-81
2022/10/05 00:52:46;;;;;;;7.90;7.70;;;8.10;99.90;;;;;;5082326;28;20232;-79
2022/10/05 00:55:43;;;;;;;8.30;8.10;;;8.10;99.90;;;;;;5080703;28;20233;-81
2022/10/05 00:58:29;;;;;;;8.20;8.00;;;8.10;99.90;;;;;;5080298;28;20286;-81
2022/10/05 01:01:08;;;;;;;8.13;7.93;;;8.20;99.90;;;;;;5080608;28;20246;-81
2022/10/05 01:03:53;;;;;;;7.80;7.60;;;8.20;99.90;;;;;;5081048;28;20232;-81
2022/10/05 01:06:31;;;;;;;8.10;7.90;;;8.20;99.90;;;;;;5081499;28;20257;-80
2022/10/05 01:09:10;;;;;;;8.10;7.90;;;8.20;99.90;;;;;;5081615;28;20236;-80
2022/10/05 01:11:47;;;;;;;8.20;8.00;;;8.30;99.90;;;;;;5087506;28;20240;-80
2022/10/05 01:14:28;;;;;;;8.00;7.80;;;8.30;99.90;;;;;;5084259;28;20218;-81
2022/10/05 01:17:03;;;;;;;7.80;7.60;;;8.30;99.90;;;;;;5083734;28;20226;-81
2022/10/05 01:19:53;;;;;;;7.90;7.70;;;8.30;99.90;;;;;;5083397;28;20324;-81
2022/10/05 01:22:39;;;;;;;7.60;7.40;;;8.30;99.90;;;;;;5082455;28;20242;-81
2022/10/05 01:25:24;;;;;;;7.93;7.73;;;8.20;99.90;;;;;;5082341;28;20242;-81
2022/10/05 01:28:07;;;;;;;7.87;7.67;;;8.10;99.90;;;;;;5082486;28;20238;-79
2022/10/05 01:30:44;;;;;;;8.00;7.80;;;8.20;99.90;;;;;;5082092;28;20233;-81
2022/10/05 01:33:23;;;;;;;7.87;7.67;;;8.20;99.90;;;;;;5081736;28;20244;-80
2022/10/05 01:36:01;;;;;;;7.70;7.50;;;8.10;99.90;;;;;;5081217;28;20256;-81
2022/10/05 01:38:43;;;;;;;7.70;7.50;;;8.10;99.90;;;;;;5081855;28;20233;-81
2022/10/05 01:41:27;;;;;;;8.10;7.90;;;8.10;99.90;;;;;;5091047;28;20324;-80
2022/10/05 01:44:03;;;;;;;8.17;7.97;;;8.20;99.90;;;;;;5082797;28;20230;-81
2022/10/05 01:46:40;;;;;;;8.00;7.80;;;8.10;99.90;;;;;;5080015;28;20300;-79
2022/10/05 01:49:28;;;;;;;8.20;8.00;;;8.20;99.90;;;;;;5080325;28;20314;-79
2022/10/05 01:52:09;;;;;;;8.00;7.80;;;8.20;99.90;;;;;;5073240;28;20250;-80
2022/10/05 01:54:53;;;;;;;8.20;8.00;;;8.10;99.90;;;;;;5075249;28;20289;-81
2022/10/05 01:57:37;;;;;;;8.00;7.80;;;8.00;99.90;;;;;;5081104;28;20295;-80
2022/10/05 02:00:21;;;;;;;8.00;7.80;;;8.00;99.90;;;;;;5080590;28;20248;-81
2022/10/05 02:02:53;;;;;;;7.93;7.73;;;7.90;99.90;;;;;;5061174;28;20234;-81
2022/10/05 02:05:26;;;;;;;7.63;7.43;;;7.80;99.90;;;;;;5060589;28;20326;-80
2022/10/05 02:08:00;;;;;;;7.70;7.50;;;7.80;99.90;;;;;;5059805;28;20253;-80
2022/10/05 02:10:35;;;;;;;7.83;7.63;;;7.70;99.90;;;;;;5057661;28;20764;-79
2022/10/05 02:13:10;;;;;;;8.00;7.80;;;7.80;99.90;;;;;;5059028;28;20262;-80
2022/10/05 02:15:46;;;;;;;8.30;8.10;;;7.80;99.90;;;;;;5059335;28;20234;-79
2022/10/05 02:18:20;;;;;;;8.27;8.07;;;7.70;99.90;;;;;;5064120;28;20310;-79
2022/10/05 02:20:52;;;;;;;8.20;8.00;;;7.70;99.90;;;;;;5059645;28;20235;-81
2022/10/05 02:23:25;;;;;;;8.00;7.80;;;7.70;99.90;;;;;;5059563;28;20314;-80
2022/10/05 02:25:55;;;;;;;7.80;7.60;;;7.70;99.90;;;;;;5057935;28;20293;-81
2022/10/05 02:28:29;;;;;;;7.77;7.57;;;7.60;99.90;;;;;;5059658;28;20245;-80
2022/10/05 02:31:04;;;;;;;7.77;7.57;;;7.60;99.90;;;;;;5059843;28;20234;-80
2022/10/05 02:33:34;;;;;;;7.70;7.50;;;7.60;99.90;;;;;;5058216;28;20214;-80
2022/10/05 02:36:11;;;;;;;7.40;7.20;;;7.60;99.90;;;;;;5058625;28;20253;-81
2022/10/05 02:38:56;;;;;;;7.70;7.50;;;7.60;99.90;;;;;;5059032;28;20219;-81
2022/10/05 02:41:36;;;;;;;8.30;8.10;;;7.60;99.90;;;;;;5058899;28;20224;-80
2022/10/05 02:44:18;;;;;;;7.80;7.60;;;7.60;99.90;;;;;;5064244;28;20326;-80
2022/10/05 02:46:56;;;;;;;7.80;7.60;;;7.60;99.90;;;;;;5066128;28;20244;-80
2022/10/05 02:49:33;;;;;;;8.00;7.80;;;7.60;99.90;;;;;;5079305;28;20311;-81
2022/10/05 02:52:13;;;;;;;7.93;7.73;;;7.60;99.90;;;;;;5081624;28;20268;-80
2022/10/05 02:54:51;;;;;;;7.80;7.60;;;7.60;99.90;;;;;;5079999;28;20312;-80
2022/10/05 02:57:29;;;;;;;8.23;8.03;;;7.60;99.90;;;;;;5080740;28;20289;-80
2022/10/05 03:00:08;;;;;;;7.80;7.60;;;7.60;99.90;;;;;;5078771;28;20236;-81
2022/10/05 03:02:46;;;;;;;7.90;7.70;;;7.70;99.90;;;;;;5079692;28;20764;-80
2022/10/05 03:05:22;;;;;;;8.00;7.80;;;7.70;99.90;;;;;;5079103;28;20310;-79
2022/10/05 03:08:00;;;;;;;8.00;7.80;;;7.70;99.90;;;;;;5079974;28;20236;-80
2022/10/05 03:10:35;;;;;;;7.70;7.50;;;7.60;99.90;;;;;;5079590;28;20230;-80
2022/10/05 03:13:09;;;;;;;7.80;7.60;;;7.60;99.90;;;;;;5080475;28;20210;-79
2022/10/05 03:16:05;;;;;;;7.80;7.60;;;7.60;99.90;;;;;;5079530;28;20254;-80
2022/10/05 03:18:48;;;;;;;7.83;7.63;;;7.60;99.90;;;;;;5073289;28;20783;-80
2022/10/05 03:21:40;;;;;;;7.50;7.30;;;7.50;99.90;;;;;;5073448;28;20240;-80
2022/10/05 03:24:29;;;;;;;8.10;7.90;;;7.50;99.90;;;;;;5083784;28;20222;-81
2022/10/05 03:27:06;;;;;;;7.73;7.53;;;7.60;99.90;;;;;;5084325;28;20332;-81
2022/10/05 03:29:43;;;;;;;8.10;7.90;;;7.60;99.90;;;;;;5062608;28;20234;-80
2022/10/05 03:32:25;;;;;;;7.60;7.40;;;7.50;99.90;;;;;;5061936;28;20253;-80
2022/10/05 03:35:02;;;;;;;8.00;7.80;;;7.50;99.90;;;;;;5078844;28;20218;-79
2022/10/05 03:37:39;;;;;;;7.63;7.43;;;7.50;99.90;;;;;;5068928;28;20230;-81
2022/10/05 03:40:23;;;;;;;7.80;7.60;;;7.50;99.90;;;;;;5085153;28;20324;-80
2022/10/05 03:43:12;;;;;;;7.60;7.40;;;7.50;99.90;;;;;;5090395;28;20264;-80
2022/10/05 03:45:50;;;;;;;7.77;7.57;;;7.50;99.90;;;;;;5084331;28;20241;-80
2022/10/05 03:48:28;;;;;;;7.80;7.60;;;7.50;99.90;;;;;;5088973;28;20249;-81
2022/10/05 03:51:09;;;;;;;7.30;7.10;;;7.50;99.90;;;;;;5085538;28;20279;-80
2022/10/05 03:53:45;;;;;;;7.30;7.10;;;7.50;99.90;;;;;;5086644;28;20237;-79
2022/10/05 03:56:19;;;;;;;7.70;7.50;;;7.50;99.90;;;;;;5092504;28;20254;-80
2022/10/05 03:58:57;;;;;;;7.70;7.50;;;7.50;99.90;;;;;;5098692;28;20261;-80
2022/10/05 04:01:36;;;;;;;7.90;7.70;;;7.40;99.90;;;;;;5090322;28;20238;-80
2022/10/05 04:04:11;;;;;;;7.80;7.60;;;7.40;99.90;;;;;;5099651;28;20233;-81
2022/10/05 04:06:49;;;;;;;7.60;7.40;;;7.50;99.90;;;;;;5099007;28;20265;-81
2022/10/05 04:09:26;;;;;;;7.97;7.77;;;7.50;99.90;;;;;;5101505;28;20277;-81
2022/10/05 04:12:06;;;;;;;8.07;7.87;;;7.50;99.90;;;;;;5098790;28;20238;-81
2022/10/05 04:14:47;;;;;;;8.00;7.80;;;7.50;99.90;;;;;;5095983;28;20230;-81
2022/10/05 04:17:23;;;;;;;7.80;7.60;;;7.50;99.90;;;;;;5094598;28;20226;-81
2022/10/05 04:20:00;;;;;;;7.90;7.70;;;7.50;99.90;;;;;;5100982;28;20265;-81
2022/10/05 04:22:39;;;;;;;8.00;7.80;;;7.40;99.90;;;;;;5100466;28;20241;-81
2022/10/05 04:25:17;;;;;;;7.80;7.60;;;7.40;99.90;;;;;;5092556;28;20222;-82
2022/10/05 04:27:56;;;;;;;7.70;7.50;;;7.50;99.90;;;;;;5091869;28;20225;-81
2022/10/05 04:30:25;;;;;;;7.77;7.57;;;7.50;99.90;;;;;;5092628;28;20245;-82
2022/10/05 04:32:56;;;;;;;7.80;7.60;;;7.50;99.90;;;;;;5096914;28;20237;-81
2022/10/05 04:35:59;;;;;;;7.90;7.70;;;7.50;99.90;;;;;;5098923;28;20223;-80
2022/10/05 04:38:45;;;;;;;8.00;7.80;;;7.50;99.90;;;;;;5100026;28;20213;-81
2022/10/05 04:41:59;;;;;;;8.23;8.03;;;7.50;99.90;;;;;;5100213;28;20226;-80
2022/10/05 04:44:56;;;;;;;8.20;8.00;;;7.50;99.90;;;;;;5052679;28;20261;-81
2022/10/05 04:51:06;;;;;;;8.00;7.80;;;7.60;99.90;;;;;;5086502;28;20225;-81
2022/10/05 04:53:43;;;;;;;7.80;7.60;;;7.60;99.90;;;;;;5100323;28;20286;-81
2022/10/05 04:56:19;;;;;;;7.80;7.60;;;7.60;99.90;;;;;;5099629;28;20234;-82
2022/10/05 04:59:10;;;;;;;7.90;7.70;;;7.50;99.90;;;;;;5099897;28;20249;-81
2022/10/05 05:02:03;;;;;;;7.60;7.40;;;7.50;99.90;;;;;;5099466;28;20230;-81
2022/10/05 05:05:11;;;;;;;7.93;7.73;;;7.50;99.90;;;;;;5098697;22;20245;-82
2022/10/05 05:07:48;;;;;;;8.43;8.23;;;7.40;99.90;;;;;;5064232;28;20258;-82
2022/10/05 05:10:44;;;;;;;8.27;8.07;;;7.40;99.90;;;;;;5063368;28;20234;-83
2022/10/05 05:16:35;;;;;;;8.40;8.20;;;7.30;99.90;;;;;;5067808;28;20262;-83
2022/10/05 05:19:23;;;;;;;8.83;8.60;;;7.30;99.90;;;;;;5065627;28;20238;-82
2022/10/05 05:22:01;;;;;;;9.53;9.23;;;7.30;99.90;;;;;;5062921;28;20318;-82
2022/10/05 05:24:41;;;;;;;9.10;8.80;;;7.30;99.90;;;;;;5062593;28;20261;-83
2022/10/05 05:30:24;;;;;;;8.50;8.30;;;7.20;99.90;;;;;;5064449;28;20231;-83
2022/10/05 05:33:09;;;;;;;8.60;8.40;;;7.20;99.90;;;;;;5063346;28;20320;-82
2022/10/05 05:36:05;;;;;;;8.83;8.63;;;7.20;99.90;;;;;;5065420;28;20234;-83
2022/10/05 05:38:43;;;;;;;8.50;8.30;;;7.20;99.90;;;;;;5064850;28;20262;-85
2022/10/05 05:41:22;;;;;;;8.23;8.03;;;7.30;99.90;;;;;;5063868;28;20230;-83
2022/10/05 05:44:09;;;;;;;8.17;7.97;;;7.30;99.90;;;;;;5063520;28;20234;-82
2022/10/05 05:46:39;;;;;;;8.30;8.10;;;7.30;99.90;;;;;;5063370;28;20227;-84
2022/10/05 05:49:16;;;;;;;8.47;8.27;;;7.40;99.90;;;;;;5063733;28;20241;-83
2022/10/05 05:51:54;;;;;;;8.40;8.20;;;7.40;99.90;;;;;;5063587;28;20273;-83
2022/10/05 05:54:32;;;;;;;8.90;8.60;;;7.40;99.90;;;;;;5062699;28;20234;-82
2022/10/05 05:57:11;;;;;;;8.57;8.37;;;7.40;99.90;;;;;;5063136;28;20230;-83
2022/10/05 05:59:59;;;;;;;8.23;8.03;;;7.50;99.90;;;;;;5062885;28;20224;-81
2022/10/05 06:02:36;;;;;;;8.70;8.50;;;7.50;99.90;;;;;;5062867;28;20285;-84
2022/10/05 06:05:33;;;;;;;9.10;8.80;;;7.50;99.90;;;;;;5062878;28;20253;-84
2022/10/05 06:08:11;;;;;;;8.97;8.67;;;7.50;99.90;;;;;;5064051;28;20222;-84
2022/10/05 06:10:42;;;;;;;8.80;8.57;;;7.60;99.90;;;;;;5063112;28;20313;-84
2022/10/05 06:13:20;;;;;;;9.00;8.70;;;7.60;99.90;;;;;;5063671;28;20238;-84
2022/10/05 06:15:56;;;;;;;8.97;8.67;;;7.60;99.90;;;;;;5063826;28;20234;-84
2022/10/05 06:18:26;;;;;;;8.73;8.53;;;7.70;99.90;;;;;;5063257;28;20314;-84
2022/10/05 06:21:04;;;;;;;9.10;8.80;;;7.70;99.90;;;;;;5063443;28;20233;-85
2022/10/05 06:23:42;;;;;;;8.90;8.60;;;7.80;99.90;;;;;;5066925;28;20341;-85
2022/10/05 06:26:21;;;;;;;9.13;8.83;;;7.80;99.90;;;;;;5073190;28;20222;-84
2022/10/05 06:28:59;;;;;;;9.20;8.90;;;7.90;99.90;;;;;;5066536;28;20215;-86
2022/10/05 06:35:54;;;;;;;9.40;9.10;;;8.00;99.90;;;;;;5042642;28;20381;-88
2022/10/05 08:46:43;;;;;;;9.57;9.27;;;13.60;99.90;;;;;;5060716;28;20330;-89
2022/10/05 11:07:07;;;;;;;9.93;9.63;;;19.70;99.90;;;;;;5059183;22;20227;-83
2022/10/05 11:10:16;;;;;;;9.80;9.50;;;19.80;99.90;;;;;;5040794;28;20219;-83
2022/10/05 11:13:27;;;;;;;10.13;9.82;;;19.90;99.90;;;;;;5029004;28;20232;-82
2022/10/05 11:16:23;;;;;;;9.90;9.60;;;20.00;99.90;;;;;;5017250;28;20245;-82
2022/10/05 11:22:41;;;;;;;10.40;10.10;;;20.10;99.90;;;;;;5021592;28;20224;-83
2022/10/05 11:25:35;;;;;;;10.32;10.02;;;20.30;99.90;;;;;;5020030;28;20232;-83
2022/10/05 11:28:26;;;;;;;10.18;9.88;;;20.50;99.90;;;;;;5022071;28;20734;-83
2022/10/05 11:31:55;;;;;;;9.98;9.68;;;20.50;99.90;;;;;;5020232;28;20244;-81
2022/10/05 11:35:17;;;;;;;10.30;10.00;;;20.70;99.90;;;;;;4997941;28;20254;-84
2022/10/05 11:38:22;;;;;;;9.98;9.68;;;20.70;99.90;;;;;;5014965;28;20228;-83
2022/10/05 11:41:25;;;;;;;9.90;9.60;;;20.80;99.90;;;;;;5021748;28;20250;-82
2022/10/05 11:44:21;;;;;;;10.70;10.40;;;20.70;99.90;;;;;;5021664;28;20271;-82
2022/10/05 11:46:59;;;;;;;10.60;10.30;;;20.50;99.90;;;;;;5024068;28;20230;-82
2022/10/05 11:49:38;;;;;;;10.52;10.23;;;20.40;99.90;;;;;;5005974;28;20251;-82
2022/10/05 11:52:15;;;;;;;10.25;9.95;;;20.60;99.90;;;;;;5026415;28;20235;-81
2022/10/05 11:55:20;;;;;;;10.55;10.25;;;20.90;99.90;;;;;;5032396;28;20256;-81
2022/10/05 11:57:59;;;;;;;10.30;10.00;;;20.90;99.90;;;;;;5007199;28;20238;-81
2022/10/05 12:00:39;;;;;;;10.48;10.18;;;21.10;99.90;;;;;;5005283;28;20229;-83
2022/10/05 12:03:41;;;;;;;10.20;9.90;;;21.10;99.90;;;;;;5013806;28;20263;-83
2022/10/05 12:06:47;;;;;;;10.10;9.80;;;21.20;99.90;;;;;;5023217;28;20750;-83
2022/10/05 12:10:19;;;;;;;10.40;10.10;;;21.40;99.90;;;;;;5023485;28;20308;-82
2022/10/05 12:13:04;;;;;;;10.20;9.90;;;21.60;99.90;;;;;;5042654;28;20226;-83
2022/10/05 12:15:42;;;;;;;10.00;9.70;;;21.60;99.90;;;;;;5042747;28;20239;-81
2022/10/05 12:18:17;;;;;;;10.27;9.98;;;21.50;99.90;;;;;;5040556;28;20227;-79
2022/10/05 12:20:50;;;;;;;10.27;9.98;;;21.80;99.90;;;;;;5020780;28;20274;-78
2022/10/05 12:23:27;;;;;;;10.13;9.82;;;21.90;99.90;;;;;;5023099;28;20232;-78
2022/10/05 12:26:02;;;;;;;10.35;10.05;;;22.10;99.90;;;;;;5021811;28;20330;-80
2022/10/05 12:28:36;;;;;;;10.15;9.85;;;22.30;99.90;;;;;;5021895;28;20231;-82
2022/10/05 12:31:23;;;;;;;10.32;10.02;;;22.40;99.90;;;;;;5018415;28;20271;-82
2022/10/05 12:34:02;;;;;;;10.23;9.93;;;22.40;99.90;;;;;;5017658;28;20232;-79
2022/10/05 12:37:08;;;;;;;10.38;10.07;;;22.30;99.90;;;;;;5021904;28;20307;-88
2022/10/05 12:39:43;;;;;;;10.40;10.10;;;22.20;99.90;;;;;;5021101;28;20336;-81
2022/10/05 12:42:28;;;;;;;10.57;10.27;;;22.20;99.90;;;;;;5021176;28;20259;-80
2022/10/05 12:45:16;;;;;;;10.32;10.02;;;22.20;99.90;;;;;;5019992;28;20240;-78
2022/10/05 12:48:06;;;;;;;10.20;9.90;;;22.30;99.90;;;;;;5022505;28;20292;-79
2022/10/05 12:50:39;;;;;;;10.20;9.90;;;22.50;99.90;;;;;;5022017;28;20244;-79
2022/10/05 12:53:28;;;;;;;10.30;10.00;;;22.70;99.90;;;;;;5021335;28;20226;-80
2022/10/05 12:56:10;;;;;;;10.50;10.20;;;22.70;99.90;;;;;;5021738;28;20259;-79
2022/10/05 12:58:52;;;;;;;10.50;10.20;;;22.70;99.90;;;;;;5018326;28;20229;-79
2022/10/05 13:01:35;;;;;;;10.43;10.13;;;22.80;99.90;;;;;;5012529;28;20240;-80
2022/10/05 13:04:17;;;;;;;10.82;10.52;;;22.70;99.90;;;;;;5018397;28;20240;-80
2022/10/05 13:07:09;;;;;;;10.55;10.25;;;22.50;99.90;;;;;;5009039;28;20240;-79
2022/10/05 13:09:46;;;;;;;10.25;9.95;;;22.40;99.90;;;;;;5001421;28;20240;-78
2022/10/05 13:12:25;;;;;;;10.50;10.20;;;22.50;99.90;;;;;;5000714;28;20238;-79
2022/10/05 13:15:04;;;;;;;10.40;10.10;;;22.60;99.90;;;;;;4999576;28;20292;-80
2022/10/05 13:17:51;;;;;;;10.40;10.10;;;22.80;99.90;;;;;;5001478;28;20225;-80
2022/10/05 13:20:30;;;;;;;10.27;9.98;;;23.00;99.90;;;;;;5000231;28;20247;-79
2022/10/05 13:23:03;;;;;;;10.48;10.18;;;23.30;99.90;;;;;;5000353;28;20315;-79
2022/10/05 13:25:35;;;;;;;10.40;10.10;;;23.40;99.90;;;;;;4999755;28;20240;-79
2022/10/05 13:28:15;;;;;;;10.20;9.90;;;23.40;99.90;;;;;;5004465;28;20288;-78
2022/10/05 13:30:55;;;;;;;9.93;9.63;;;23.30;99.90;;;;;;5001242;28;20232;-77
2022/10/05 13:33:39;;;;;;;10.43;10.13;;;23.20;99.90;;;;;;4999699;28;20235;-78
2022/10/05 13:36:16;;;;;;;10.50;10.20;;;23.20;99.90;;;;;;4997034;28;20228;-77
2022/10/05 13:38:56;;;;;;;10.63;10.32;;;23.20;99.90;;;;;;4999235;28;20225;-78
2022/10/05 13:41:35;;;;;;;10.27;9.98;;;23.40;99.90;;;;;;4998140;28;20721;-77
2022/10/05 13:44:18;;;;;;;10.30;10.00;;;23.40;99.90;;;;;;4998565;28;20228;-78
2022/10/05 13:46:52;;;;;;;10.32;10.02;;;23.40;99.90;;;;;;4996860;28;20244;-77
2022/10/05 13:49:28;;;;;;;10.57;10.27;;;23.40;99.90;;;;;;4998548;28;20229;-77
2022/10/05 13:52:11;;;;;;;10.35;10.05;;;23.60;99.90;;;;;;5008938;28;20521;-77
2022/10/05 13:54:48;;;;;;;10.40;10.10;;;23.80;99.90;;;;;;5011614;28;20232;-79
2022/10/05 13:57:31;;;;;;;10.52;10.23;;;23.60;99.90;;;;;;5015999;28;20251;-80
2022/10/05 14:00:02;;;;;;;10.55;10.25;;;23.40;99.90;;;;;;5031196;28;20224;-80
2022/10/05 14:02:39;;;;;;;10.65;10.35;;;23.20;99.90;;;;;;5032988;28;20236;-77
2022/10/05 14:05:17;;;;;;;10.10;9.80;;;23.20;99.90;;;;;;5032078;28;20312;-78
2022/10/05 14:08:17;;;;;;;9.95;9.65;;;23.30;99.90;;;;;;5027105;28;20316;-77
2022/10/05 14:10:55;;;;;;;9.95;9.65;;;23.30;99.90;;;;;;5029966;28;20282;-79
2022/10/05 14:13:27;;;;;;;9.75;9.45;;;23.30;99.90;;;;;;5027361;28;20228;-78
2022/10/05 14:16:18;;;;;;;9.60;9.30;;;23.40;99.90;;;;;;5009771;28;20233;-78
2022/10/05 14:18:57;;;;;;;9.57;9.27;;;23.50;99.90;;;;;;5014122;28;20288;-78
2022/10/05 14:21:28;;;;;;;9.90;9.60;;;23.70;99.90;;;;;;5012177;28;20212;-78
2022/10/05 14:23:57;;;;;;;10.23;9.93;;;23.70;99.90;;;;;;5009853;28;20240;-78
2022/10/05 14:26:37;;;;;;;10.00;9.70;;;23.70;99.90;;;;;;5001089;28;20237;-79
2022/10/05 14:29:19;;;;;;;10.10;9.80;;;23.60;99.90;;;;;;5013766;28;20239;-77
2022/10/05 14:31:55;;;;;;;10.25;9.95;;;23.40;99.90;;;;;;5018136;28;20236;-78
2022/10/05 14:34:34;;;;;;;9.75;9.45;;;23.50;99.90;;;;;;5018272;28;20320;-78
2022/10/05 14:37:16;;;;;;;10.10;9.80;;;23.60;99.90;;;;;;5017126;28;20243;-78
2022/10/05 14:39:46;;;;;;;10.20;9.90;;;23.50;99.90;;;;;;5016442;28;20231;-76
2022/10/05 14:42:17;;;;;;;10.20;9.90;;;23.30;99.90;;;;;;5002517;28;20233;-77
2022/10/05 14:44:46;;;;;;;10.20;9.90;;;23.30;99.90;;;;;;5007123;28;20251;-78
2022/10/05 14:47:22;;;;;;;10.10;9.80;;;23.10;99.90;;;;;;5018225;28;20228;-78
2022/10/05 14:50:14;;;;;;;10.40;10.10;;;23.00;99.90;;;;;;5018179;28;20227;-78
2022/10/05 14:52:47;;;;;;;10.10;9.80;;;23.00;99.90;;;;;;5019166;28;20220;-79
2022/10/05 14:55:46;;;;;;;10.13;9.82;;;23.00;99.90;;;;;;5018058;28;20240;-80
2022/10/05 14:58:33;;;;;;;10.10;9.80;;;23.00;99.90;;;;;;5017097;28;20231;-79
2022/10/05 15:01:12;;;;;;;10.48;10.18;;;23.20;99.90;;;;;;5007874;28;20239;-79
2022/10/05 15:03:51;;;;;;;9.68;9.38;;;23.30;99.90;;;;;;5017286;28;20227;-78
2022/10/05 15:06:30;;;;;;;10.30;10.00;;;23.30;99.90;;;;;;5017388;28;20254;-78
2022/10/05 15:09:33;;;;;;;9.80;9.50;;;23.30;99.90;;;;;;5018621;28;20238;-78
2022/10/05 15:12:03;;;;;;;10.63;10.32;;;23.40;99.90;;;;;;5020847;28;20232;-84
2022/10/05 15:14:39;;;;;;;10.30;10.00;;;23.30;99.90;;;;;;5016038;28;20280;-84
2022/10/05 15:17:18;;;;;;;9.55;9.25;;;23.30;99.90;;;;;;5006577;28;20232;-84
2022/10/05 15:19:58;;;;;;;9.70;9.40;;;23.20;99.90;;;;;;5022469;28;20242;-83
2022/10/05 15:22:33;;;;;;;9.60;9.30;;;23.00;99.90;;;;;;5022452;28;20267;-83
2022/10/05 15:25:11;;;;;;;9.80;9.50;;;22.80;99.90;;;;;;5022028;28;20233;-80
2022/10/05 15:28:04;;;;;;;9.40;9.10;;;22.60;99.90;;;;;;5022924;28;20244;-81
2022/10/05 15:30:36;;;;;;;9.93;9.63;;;22.30;99.90;;;;;;5021638;28;20271;-80
2022/10/05 15:33:18;;;;;;;9.70;9.40;;;22.10;99.90;;;;;;5022234;28;20242;-80
2022/10/05 15:36:14;;;;;;;10.10;9.80;;;22.00;99.90;;;;;;5022004;28;20236;-80
2022/10/05 15:39:01;;;;;;;9.90;9.60;;;21.90;99.90;;;;;;5009813;28;20231;-84
2022/10/05 15:41:51;;;;;;;9.57;9.27;;;21.70;99.90;;;;;;5023536;28;20239;-80
2022/10/05 15:44:35;;;;;;;9.55;9.25;;;21.50;99.90;;;;;;5022883;28;20232;-82
2022/10/05 15:47:10;;;;;;;9.40;9.10;;;21.20;99.90;;;;;;5023262;28;20234;-82
2022/10/05 15:49:48;;;;;;;8.93;8.73;;;21.10;99.90;;;;;;5023216;28;20250;-83
2022/10/05 15:52:27;;;;;;;9.25;8.95;;;20.90;99.90;;;;;;5022820;28;20250;-82
2022/10/05 15:55:23;;;;;;;9.40;9.10;;;20.80;99.90;;;;;;5023241;28;20236;-82
2022/10/05 15:58:20;;;;;;;9.30;9.00;;;20.60;99.90;;;;;;5022837;28;20307;-83
2022/10/05 16:00:57;;;;;;;9.48;9.18;;;20.50;99.90;;;;;;5009667;28;20232;-83
2022/10/05 16:03:46;;;;;;;9.05;8.82;;;20.30;99.90;;;;;;5013234;28;20236;-83
2022/10/05 16:09:48;;;;;;;9.23;8.93;;;20.10;99.90;;;;;;5004512;28;20216;-83
2022/10/05 16:12:41;;;;;;;9.35;9.05;;;20.00;99.90;;;;;;5004811;28;20233;-83
2022/10/05 16:15:31;;;;;;;9.40;9.10;;;19.90;99.90;;;;;;5006538;28;20240;-83
2022/10/05 16:18:31;;;;;;;9.20;8.90;;;19.80;99.90;;;;;;5005807;28;20225;-83
2022/10/05 16:21:12;;;;;;;8.88;8.68;;;19.70;99.90;;;;;;5004741;28;20225;-83
2022/10/05 16:23:57;;;;;;;8.80;8.60;;;19.60;99.90;;;;;;5004664;28;20768;-82
2022/10/05 16:26:38;;;;;;;8.40;8.20;;;19.60;99.90;;;;;;5003871;28;20237;-83
2022/10/05 16:29:33;;;;;;;8.80;8.60;;;19.50;99.90;;;;;;5003746;28;20241;-82
2022/10/05 16:32:10;;;;;;;8.80;8.60;;;19.40;99.90;;;;;;5004084;28;20245;-85
2022/10/05 16:34:56;;;;;;;8.90;8.70;;;19.30;99.90;;;;;;5003339;28;20236;-86
2022/10/05 16:37:36;;;;;;;8.40;8.20;;;19.20;99.90;;;;;;5003617;28;20228;-84
2022/10/05 16:40:22;;;;;;;8.77;8.57;;;19.10;99.90;;;;;;5004508;28;20263;-82
2022/10/05 16:43:05;;;;;;;8.50;8.30;;;19.00;99.90;;;;;;5004796;28;20220;-82
2022/10/05 16:45:55;;;;;;;8.48;8.27;;;19.00;99.90;;;;;;5004487;28;20232;-82
2022/10/05 16:48:26;;;;;;;8.20;8.00;;;18.90;99.90;;;;;;5004292;28;20239;-82
2022/10/05 16:51:12;;;;;;;8.20;8.00;;;18.80;99.90;;;;;;5002903;28;20236;-82
2022/10/05 16:56:38;;;;;;;8.10;7.90;;;18.70;99.90;;;;;;5015096;28;20291;-85
2022/10/05 16:59:43;;;;;;;8.00;7.80;;;18.60;99.90;;;;;;5023474;28;20239;-85
2022/10/05 17:02:39;;;;;;;7.97;7.78;;;18.50;99.90;;;;;;5031882;28;20328;-85
2022/10/05 20:34:11;;;;;;;8.50;8.30;;;14.50;99.90;;;;;;4763126;29;20250;-84
2022/10/05 20:37:20;;;;;;;8.37;8.17;;;14.50;99.90;;;;;;4825402;29;20286;-82
2022/10/05 20:40:50;;;;;;;;;;;;;;;;;;;;;
2022/10/05 20:43:42;;;;;;;8.10;7.90;;;14.40;99.90;;;;;;4940419;28;20244;-84
2022/10/05 20:46:47;;;;;;;8.27;8.07;;;14.30;99.90;;;;;;5003950;28;20312;-84
2022/10/05 20:50:23;;;;;;;7.80;7.60;;;14.30;99.90;;;;;;5005342;28;20287;-84
2022/10/05 20:53:28;;;;;;;8.20;8.00;;;14.20;99.90;;;;;;4996872;28;20240;-84
2022/10/05 20:56:49;;;;;;;8.20;8.00;;;14.20;99.90;;;;;;5021825;22;20238;-84
2022/10/05 21:03:53;;;;;;;8.30;8.10;;;14.10;99.90;;;;;;4989266;28;20232;-84
2022/10/05 21:06:59;;;;;;;;;;;;;;;;;;;;;
2022/10/05 21:14:00;;;;;;;8.70;8.50;;;13.80;99.90;;;;;;5012095;28;20278;-84
2022/10/05 21:16:44;;;;;;;8.47;8.27;;;13.70;99.90;;;;;;5016987;28;20267;-84
2022/10/05 21:19:59;;;;;;;8.60;8.40;;;13.60;99.90;;;;;;5022953;28;20235;-84
2022/10/05 21:22:35;;;;;;;8.80;8.60;;;13.50;99.90;;;;;;5022940;28;20298;-85
2022/10/05 21:25:20;;;;;;;8.73;8.53;;;13.50;99.90;;;;;;5022613;28;20236;-85
2022/10/05 21:28:13;;;;;;;8.60;8.40;;;13.40;99.90;;;;;;5023366;28;20234;-85
2022/10/05 21:40:42;;;;;;;8.80;8.60;;;13.10;99.90;;;;;;4934133;28;20241;-83
2022/10/05 21:43:41;;;;;;;9.30;9.00;;;13.10;99.90;;;;;;5023006;28;20307;-83
2022/10/05 21:46:24;;;;;;;8.70;8.50;;;13.00;99.90;;;;;;5026009;28;20236;-83
2022/10/05 21:49:01;;;;;;;9.07;8.77;;;13.00;99.90;;;;;;5028309;28;20340;-82
2022/10/05 21:51:35;;;;;;;8.77;8.57;;;12.90;99.90;;;;;;5025539;28;20247;-82
2022/10/05 21:54:52;;;;;;;8.77;8.57;;;12.90;99.90;;;;;;5025740;28;20246;-84
2022/10/05 21:57:40;;;;;;;9.00;8.70;;;12.90;99.90;;;;;;5023791;28;20254;-84
2022/10/05 22:03:27;;;;;;;8.40;8.20;;;12.80;99.90;;;;;;5022638;28;20232;-84
2022/10/05 22:06:15;;;;;;;8.80;8.60;;;12.70;99.90;;;;;;5023677;28;20238;-84
2022/10/05 22:09:12;;;;;;;8.80;8.60;;;12.70;99.90;;;;;;5025459;28;20250;-85
2022/10/05 22:12:26;;;;;;;;;;;;;;;;;;;;;
2022/10/05 22:19:25;;;;;;;9.00;8.70;;;12.50;99.90;;;;;;5021148;28;20237;-84
2022/10/05 22:21:58;;;;;;;9.17;8.87;;;12.50;99.90;;;;;;5019926;28;20291;-84
2022/10/05 22:24:34;;;;;;;9.27;8.97;;;12.40;99.90;;;;;;5025568;28;20282;-85
2022/10/05 22:27:17;;;;;;;9.33;9.03;;;12.40;99.90;;;;;;5025521;28;20227;-85
2022/10/05 22:29:45;;;;;;;9.30;9.00;;;12.30;99.90;;;;;;5028664;28;20263;-85
2022/10/05 22:32:29;;;;;;;9.20;8.90;;;12.30;99.90;;;;;;5027911;28;20232;-85
2022/10/05 22:35:02;;;;;;;9.00;8.70;;;12.30;99.90;;;;;;5028960;28;20211;-85
2022/10/05 22:37:32;;;;;;;9.20;8.90;;;12.30;99.90;;;;;;5025688;28;20338;-84
2022/10/05 22:40:09;;;;;;;9.20;8.90;;;12.30;99.90;;;;;;5026239;28;20243;-85
2022/10/05 22:42:39;;;;;;;9.40;9.10;;;12.20;99.90;;;;;;5027641;28;20234;-85
2022/10/05 22:45:18;;;;;;;9.70;9.40;;;12.20;99.90;;;;;;5028098;28;20311;-85
2022/10/05 22:47:55;;;;;;;9.63;9.33;;;12.20;99.90;;;;;;5028414;28;20295;-84
2022/10/05 22:50:32;;;;;;;9.40;9.10;;;12.10;99.90;;;;;;5028580;28;20344;-84
2022/10/05 22:56:00;;;;;;;9.20;8.90;;;12.10;99.90;;;;;;5028888;28;20236;-85
2022/10/05 22:58:28;;;;;;;9.10;8.80;;;12.10;99.90;;;;;;5027357;28;20259;-84